Time;durP1;ratioP1;P1;durP2;ratioP2;P2;SDS_P1;SDS_P2;PMS_P1;PMS_P2;Temp;Humidity;BMP_temperature;BMP_pressure;BME280_temperature;BME280_humidity;BME280_pressure;Samples;Min_cycle;Max_cycle;Signal;HPM_P1;HPM_P2
2022/04/26 03:36:39;;;;;;;;;;;;;;;18.18;66.39;100552.56;4944734;29;1448;-54
2022/04/26 03:39:06;;;;;;;;;;;;;;;18.21;66.36;100556.81;4941549;29;1526;-57
2022/04/26 03:41:33;;;;;;;;;;;;;;;18.21;66.22;100568.38;4942763;29;1520;-56
2022/04/26 03:43:59;;;;;;;;;;;;;;;18.23;66.34;100566.41;4940649;29;1634;-56
2022/04/26 03:46:26;;;;;;;;;;;;;;;18.22;65.98;100570.06;4937301;29;1972;-54
2022/04/26 03:48:54;;;;;;;;;;;;;;;18.25;66.23;100568.94;4940910;29;1084;-54
2022/04/26 03:51:21;;;;;;;;;;;;;;;18.24;65.96;100568.13;4942480;29;1466;-54
2022/04/26 03:53:48;;;;;;;;;;;;;;;18.25;66.63;100575.16;4949309;29;1471;-53
2022/04/26 03:56:15;;;;;;;;;;;;;;;18.25;66.37;100580.50;4944587;29;1642;-54
2022/04/26 03:58:42;;;;;;;;;;;;;;;18.25;66.13;100585.84;4945782;29;1646;-54
2022/04/26 04:01:08;;;;;;;;;;;;;;;18.26;66.54;100582.22;4941672;29;1713;-54
2022/04/26 04:03:37;;;;;;;;;;;;;;;18.28;65.89;100580.25;4947321;29;1654;-54
2022/04/26 04:06:05;;;;;;;;;;;;;;;18.27;66.06;100573.19;4944219;29;1512;-54
2022/04/26 04:08:32;;;;;;;;;;;;;;;18.31;66.17;100578.28;4945098;29;1898;-54
2022/04/26 04:10:58;;;;;;;;;;;;;;;18.35;66.08;100566.31;4943687;29;1616;-53
2022/04/26 04:13:25;;;;;;;;;;;;;;;18.42;66.39;100592.41;4944711;29;1512;-53
2022/04/26 04:15:52;;;;;;;;;;;;;;;18.44;66.34;100587.75;4943797;29;1341;-53
2022/04/26 04:21:03;;;;;;;;;;;;;;;18.51;66.30;100574.66;4942301;29;1737;-54
2022/04/26 04:23:31;;;;;;;;;;;;;;;18.54;66.07;100595.78;4943569;29;1505;-54
2022/04/26 04:25:57;;;;;;;;;;;;;;;18.53;66.41;100587.91;4942630;29;1507;-53
2022/04/26 04:28:24;;;;;;;;;;;;;;;18.55;66.23;100589.47;4945420;29;1927;-54
2022/04/26 04:30:52;;;;;;;;;;;;;;;18.58;66.20;100593.69;4942901;29;1629;-55
2022/04/26 04:33:18;;;;;;;;;;;;;;;18.55;66.09;100597.50;4940113;29;1559;-53
2022/04/26 04:35:45;;;;;;;;;;;;;;;18.54;66.18;100595.78;4942314;29;1567;-55
2022/04/26 04:38:12;;;;;;;;;;;;;;;18.52;66.30;100608.47;4943328;29;1614;-54
2022/04/26 04:40:40;;;;;;;;;;;;;;;18.51;66.11;100617.50;4943016;28;1893;-53
2022/04/26 04:43:06;;;;;;;;;;;;;;;18.49;66.40;100611.44;4939641;29;1583;-54
2022/04/26 04:45:33;;;;;;;;;;;;;;;18.47;66.04;100608.06;4938037;29;1303;-54
2022/04/26 04:48:00;;;;;;;;;;;;;;;18.44;66.29;100608.31;4939764;29;1914;-54
2022/04/26 04:50:27;;;;;;;;;;;;;;;18.47;66.24;100602.69;4942566;29;1526;-54
2022/04/26 04:52:53;;;;;;;;;;;;;;;18.58;66.27;100601.72;4944106;29;1579;-55
2022/04/26 04:55:20;;;;;;;;;;;;;;;18.68;66.38;100607.97;4944138;29;1538;-53
2022/04/26 04:57:48;;;;;;;;;;;;;;;18.77;66.50;100614.34;4940520;29;1820;-52
2022/04/26 05:00:15;;;;;;;;;;;;;;;19.05;66.57;100608.19;4942208;29;1410;-56
2022/04/26 05:02:41;;;;;;;;;;;;;;;19.16;66.61;100599.19;4940304;29;1445;-51
2022/04/26 05:05:08;;;;;;;;;;;;;;;19.13;65.91;100601.31;4939479;29;1408;-53
2022/04/26 05:07:36;;;;;;;;;;;;;;;19.19;66.28;100609.63;4942411;29;1978;-54
2022/04/26 05:10:03;;;;;;;;;;;;;;;19.29;66.08;100609.63;4936928;29;1522;-55
2022/04/26 05:12:30;;;;;;;;;;;;;;;19.26;66.16;100612.59;4941415;29;1393;-54
2022/04/26 05:14:58;;;;;;;;;;;;;;;19.37;64.72;100612.44;4941389;29;1319;-54
2022/04/26 05:17:27;;;;;;;;;;;;;;;19.39;64.99;100606.94;4944234;29;1525;-56
2022/04/26 05:19:54;;;;;;;;;;;;;;;19.36;65.89;100625.97;4940618;29;1545;-55
2022/04/26 05:22:20;;;;;;;;;;;;;;;19.48;65.65;100617.66;4942427;29;1876;-54
2022/04/26 05:24:56;;;;;;;;;;;;;;;19.50;65.17;100619.34;4942855;29;1379;-54
2022/04/26 05:27:24;;;;;;;;;;;;;;;19.39;64.51;100620.34;4939400;29;1971;-54
2022/04/26 05:29:51;;;;;;;;;;;;;;;19.31;63.77;100626.41;4940018;29;1347;-54
2022/04/26 05:32:21;;;;;;;;;;;;;;;19.44;65.40;100628.84;4939884;29;1654;-54
2022/04/26 05:34:48;;;;;;;;;;;;;;;19.47;65.02;100626.69;4938821;29;1639;-54
2022/04/26 05:37:15;;;;;;;;;;;;;;;19.39;65.17;100642.63;4942273;29;1626;-55
2022/04/26 05:39:41;;;;;;;;;;;;;;;19.35;65.21;100653.78;4939318;29;1578;-55
2022/04/26 05:42:08;;;;;;;;;;;;;;;19.36;65.08;100640.25;4939453;29;1486;-54
2022/04/26 05:44:38;;;;;;;;;;;;;;;19.42;64.74;100642.38;4936301;29;1556;-55
2022/04/26 05:47:05;;;;;;;;;;;;;;;18.31;57.17;100654.06;4937605;29;1903;-55
2022/04/26 05:49:33;;;;;;;;;;;;;;;17.88;58.60;100655.09;4928458;29;1544;-54
2022/04/26 05:52:00;;;;;;;;;;;;;;;18.04;57.16;100657.28;4936335;29;1517;-56
2022/04/26 05:54:27;;;;;;;;;;;;;;;18.71;59.37;100655.06;4945079;29;1566;-55
2022/04/26 05:56:53;;;;;;;;;;;;;;;19.08;60.01;100639.25;4943852;29;1466;-55
2022/04/26 05:59:20;;;;;;;;;;;;;;;19.30;59.20;100642.63;4940722;29;1741;-55
2022/04/26 06:01:47;;;;;;;;;;;;;;;19.37;60.43;100647.31;4934993;29;1416;-56
2022/04/26 06:04:14;;;;;;;;;;;;;;;19.41;60.86;100643.34;4945894;29;1626;-55
2022/04/26 06:06:42;;;;;;;;;;;;;;;19.45;61.33;100644.75;4943162;29;1464;-56
2022/04/26 06:09:09;;;;;;;;;;;;;;;19.48;60.69;100647.16;4942472;29;2009;-55
2022/04/26 06:11:36;;;;;;;;;;;;;;;19.47;60.84;100648.13;4941651;29;1407;-55
2022/04/26 06:14:04;;;;;;;;;;;;;;;19.51;60.96;100655.91;4943001;29;1582;-55
2022/04/26 06:16:30;;;;;;;;;;;;;;;19.50;61.24;100640.81;4942745;29;1966;-56
2022/04/26 06:18:57;;;;;;;;;;;;;;;19.50;60.84;100638.13;4939764;29;1640;-55
2022/04/26 06:21:24;;;;;;;;;;;;;;;19.52;60.76;100645.06;4941325;29;1690;-56
2022/04/26 06:23:52;;;;;;;;;;;;;;;19.51;60.96;100637.16;4941553;29;1446;-56
2022/04/26 06:26:18;;;;;;;;;;;;;;;19.55;60.41;100638.56;4941947;29;1519;-56
2022/04/26 06:28:45;;;;;;;;;;;;;;;19.57;60.94;100647.31;4942695;29;1927;-56
2022/04/26 06:31:11;;;;;;;;;;;;;;;19.56;59.92;100645.63;4942292;29;1446;-56
2022/04/26 06:33:38;;;;;;;;;;;;;;;19.62;60.75;100669.19;4939359;29;1061;-56
2022/04/26 06:36:05;;;;;;;;;;;;;;;19.61;60.36;100659.44;4940731;29;1435;-55
2022/04/26 06:38:32;;;;;;;;;;;;;;;19.61;60.89;100648.72;4944571;29;1638;-56
2022/04/26 06:41:00;;;;;;;;;;;;;;;19.61;60.37;100660.28;4944258;29;1658;-56
2022/04/26 06:43:27;;;;;;;;;;;;;;;19.63;60.56;100668.19;4943992;29;1780;-56
2022/04/26 06:45:54;;;;;;;;;;;;;;;19.63;60.98;100657.47;4942872;29;1510;-56
2022/04/26 06:48:21;;;;;;;;;;;;;;;19.66;60.36;100662.56;4947864;29;1910;-55
2022/04/26 06:50:48;;;;;;;;;;;;;;;19.64;59.92;100661.84;4945428;29;1803;-55
2022/04/26 06:53:15;;;;;;;;;;;;;;;19.66;60.10;100651.81;4940050;29;1730;-55
2022/04/26 06:55:42;;;;;;;;;;;;;;;19.62;59.81;100651.25;4939645;29;1599;-56
2022/04/26 06:58:10;;;;;;;;;;;;;;;19.66;59.46;100658.03;4940564;29;1658;-56
2022/04/26 07:00:37;;;;;;;;;;;;;;;19.66;59.02;100651.81;4939571;29;1637;-55
2022/04/26 07:03:03;;;;;;;;;;;;;;;19.66;59.65;100651.81;4939182;29;1508;-55
2022/04/26 07:05:30;;;;;;;;;;;;;;;19.67;60.06;100648.13;4939678;29;1606;-56
2022/04/26 07:07:57;;;;;;;;;;;;;;;19.69;59.88;100670.31;4939911;29;1973;-55
2022/04/26 07:10:24;;;;;;;;;;;;;;;19.72;59.50;100663.84;4936680;29;1466;-55
2022/04/26 07:12:50;;;;;;;;;;;;;;;19.72;59.63;100669.22;4941080;29;1606;-55
2022/04/26 07:15:18;;;;;;;;;;;;;;;19.76;59.64;100676.00;4941151;29;1323;-55
2022/04/26 07:17:45;;;;;;;;;;;;;;;19.74;58.48;100683.34;4937459;29;962;-56
2022/04/26 07:20:12;;;;;;;;;;;;;;;19.70;59.19;100672.00;4938694;29;1809;-56
2022/04/26 07:22:38;;;;;;;;;;;;;;;19.68;58.94;100669.47;4941917;29;1587;-56
2022/04/26 07:25:06;;;;;;;;;;;;;;;19.71;59.00;100671.03;4940504;29;1523;-55
2022/04/26 07:27:33;;;;;;;;;;;;;;;19.74;59.38;100686.88;4935768;29;1974;-56
2022/04/26 07:30:00;;;;;;;;;;;;;;;19.74;59.12;100686.03;4936291;29;1473;-55
2022/04/26 07:35:10;;;;;;;;;;;;;;;19.76;58.64;100684.03;4938057;29;1486;-55
2022/04/26 07:37:37;;;;;;;;;;;;;;;19.74;58.44;100681.50;4941917;29;1622;-55
2022/04/26 07:40:04;;;;;;;;;;;;;;;19.76;58.31;100694.78;4945190;29;1511;-56
2022/04/26 07:42:31;;;;;;;;;;;;;;;19.75;58.13;100693.91;4948429;29;1637;-56
2022/04/26 07:44:57;;;;;;;;;;;;;;;19.74;58.96;100689.53;4942807;29;1518;-56
2022/04/26 07:47:26;;;;;;;;;;;;;;;19.73;58.85;100685.16;4942381;29;1446;-56
2022/04/26 07:49:55;;;;;;;;;;;;;;;19.73;58.54;100695.88;4940940;29;1906;-56
2022/04/26 07:52:23;;;;;;;;;;;;;;;19.75;58.15;100693.06;4941570;29;1618;-56
2022/04/26 07:54:50;;;;;;;;;;;;;;;19.80;57.80;100693.50;4937599;29;1625;-57
2022/04/26 07:57:17;;;;;;;;;;;;;;;19.79;58.21;100706.03;4940499;29;1626;-57
2022/04/26 07:59:43;;;;;;;;;;;;;;;19.77;57.23;100699.13;4941493;29;1595;-56
2022/04/26 08:02:11;;;;;;;;;;;;;;;19.77;58.00;100691.09;4941216;29;1725;-56
2022/04/26 08:04:37;;;;;;;;;;;;;;;19.76;57.76;100694.78;4938102;29;1626;-56
2022/04/26 08:07:06;;;;;;;;;;;;;;;19.73;58.17;100701.25;4942036;29;1630;-56
2022/04/26 08:09:35;;;;;;;;;;;;;;;19.74;57.73;100692.22;4941843;29;1907;-56
2022/04/26 08:12:02;;;;;;;;;;;;;;;19.75;58.08;100695.75;4941740;29;1468;-56
2022/04/26 08:14:29;;;;;;;;;;;;;;;19.77;57.69;100680.34;4940894;29;1562;-56
2022/04/26 08:16:55;;;;;;;;;;;;;;;19.75;57.66;100693.06;4943503;29;1631;-56
2022/04/26 08:19:22;;;;;;;;;;;;;;;19.71;57.85;100697.88;4947944;29;1768;-56
2022/04/26 08:21:49;;;;;;;;;;;;;;;19.75;57.78;100698.44;4941884;29;1705;-56
2022/04/26 08:29:46;;;;;;;;;;;;;;;19.97;57.77;100692.75;4946119;29;1961;-55
2022/04/26 08:32:13;;;;;;;;;;;;;;;19.96;57.88;100698.28;4942337;29;1582;-55
2022/04/26 08:34:40;;;;;;;;;;;;;;;19.90;57.90;100690.81;4940487;29;1236;-55
2022/04/26 08:37:06;;;;;;;;;;;;;;;19.88;58.03;100692.78;4947739;29;1633;-54
2022/04/26 08:39:34;;;;;;;;;;;;;;;19.86;58.15;100695.63;4944736;29;1527;-54
2022/04/26 08:42:01;;;;;;;;;;;;;;;19.86;58.09;100685.72;4942599;29;1665;-57
2022/04/26 08:44:28;;;;;;;;;;;;;;;19.87;58.46;100691.91;4942257;29;1359;-59
2022/04/26 08:52:23;;;;;;;;;;;;;;;19.80;58.76;100691.66;4943796;29;1617;-56
2022/04/26 08:54:51;;;;;;;;;;;;;;;19.71;58.44;100684.44;4940408;29;1650;-55
2022/04/26 08:57:17;;;;;;;;;;;;;;;19.82;58.12;100684.31;4941094;29;1442;-56
2022/04/26 08:59:48;;;;;;;;;;;;;;;19.76;57.82;100679.53;4943548;29;1434;-56
2022/04/26 09:02:15;;;;;;;;;;;;;;;19.75;58.95;100685.84;4942496;29;1734;-56
2022/04/26 09:04:42;;;;;;;;;;;;;;;19.73;57.97;100679.78;4939325;29;1473;-56
2022/04/26 09:07:10;;;;;;;;;;;;;;;19.72;58.26;100678.13;4944820;29;1232;-56
2022/04/26 09:09:39;;;;;;;;;;;;;;;19.70;58.08;100677.38;4937374;29;1978;-57
2022/04/26 09:12:10;;;;;;;;;;;;;;;19.69;57.94;100678.34;4944114;29;1563;-56
2022/04/26 09:14:38;;;;;;;;;;;;;;;19.75;58.08;100695.75;4944588;29;1785;-56
2022/04/26 09:17:05;;;;;;;;;;;;;;;19.71;58.60;100676.41;4939654;29;1499;-56
2022/04/26 09:19:43;;;;;;;;;;;;;;;19.71;57.96;100665.66;4939865;29;1622;-56
2022/04/26 09:22:15;;;;;;;;;;;;;;;19.68;58.32;100674.00;4939346;29;1519;-56
2022/04/26 09:24:53;;;;;;;;;;;;;;;19.66;57.96;100667.91;4935720;29;1717;-56
2022/04/26 09:27:22;;;;;;;;;;;;;;;19.68;57.57;100666.78;4941863;29;1788;-56
2022/04/26 09:29:48;;;;;;;;;;;;;;;19.67;57.80;100670.44;4941538;29;1910;-56
2022/04/26 09:32:15;;;;;;;;;;;;;;;19.67;57.83;100678.47;4943638;29;1587;-56
2022/04/26 09:34:42;;;;;;;;;;;;;;;19.65;58.17;100675.09;4939047;29;1564;-56
2022/04/26 09:37:10;;;;;;;;;;;;;;;19.62;57.72;100677.25;4940354;29;1358;-56
2022/04/26 09:39:39;;;;;;;;;;;;;;;19.62;57.53;100658.47;4943673;29;1354;-56
2022/04/26 09:42:06;;;;;;;;;;;;;;;19.60;57.32;100661.28;4939793;29;1537;-56
2022/04/26 09:44:35;;;;;;;;;;;;;;;19.63;57.78;100662.81;4942945;29;1582;-56
2022/04/26 09:47:02;;;;;;;;;;;;;;;19.61;57.47;100675.53;4943668;29;1416;-56
2022/04/26 09:49:36;;;;;;;;;;;;;;;19.61;56.78;100671.00;4939027;29;1903;-56
2022/04/26 09:52:02;;;;;;;;;;;;;;;19.60;56.90;100663.13;4936117;29;1521;-56
2022/04/26 09:54:31;;;;;;;;;;;;;;;19.61;57.41;100672.84;4940616;29;1557;-56
2022/04/26 09:56:58;;;;;;;;;;;;;;;19.62;56.98;100677.25;4937448;29;1593;-56
2022/04/26 09:59:27;;;;;;;;;;;;;;;19.55;57.71;100665.38;4938402;29;1411;-56
2022/04/26 10:01:56;;;;;;;;;;;;;;;19.57;57.41;100660.72;4931138;29;1454;-56
2022/04/26 10:04:23;;;;;;;;;;;;;;;19.56;57.41;100661.72;4939269;29;1717;-56
2022/04/26 10:06:50;;;;;;;;;;;;;;;19.53;57.12;100667.34;4942019;29;1335;-56
2022/04/26 10:09:17;;;;;;;;;;;;;;;19.53;56.74;100656.63;4942110;29;1907;-56
2022/04/26 10:11:44;;;;;;;;;;;;;;;19.51;56.53;100648.72;4937272;29;1990;-56
2022/04/26 10:14:11;;;;;;;;;;;;;;;19.47;56.08;100650.81;4936683;29;1721;-56
2022/04/26 10:16:38;;;;;;;;;;;;;;;19.48;55.30;100640.97;4932546;29;1423;-56
2022/04/26 10:19:07;;;;;;;;;;;;;;;19.49;54.92;100648.00;4934741;29;1457;-56
2022/04/26 10:21:54;;;;;;;;;;;;;;;19.53;54.97;100659.31;4936204;29;1793;-56
2022/04/26 10:24:22;;;;;;;;;;;;;;;19.52;55.17;100644.19;4938521;29;1383;-56
2022/04/26 10:26:49;;;;;;;;;;;;;;;19.52;54.77;100662.97;4941083;29;1585;-56
2022/04/26 10:29:17;;;;;;;;;;;;;;;19.50;55.24;100641.66;4938960;29;1903;-56
2022/04/26 10:31:45;;;;;;;;;;;;;;;19.50;55.68;100638.13;4941775;29;1488;-56
2022/04/26 10:34:24;;;;;;;;;;;;;;;19.52;55.88;100636.13;4935318;29;1485;-56
2022/04/26 10:36:51;;;;;;;;;;;;;;;19.53;56.07;100636.00;4942498;29;1594;-56
2022/04/26 10:39:21;;;;;;;;;;;;;;;19.51;55.48;100640.66;4941745;29;1454;-56
2022/04/26 10:41:48;;;;;;;;;;;;;;;19.52;55.44;100641.50;4935833;29;1694;-56
2022/04/26 10:44:26;;;;;;;;;;;;;;;19.52;55.04;100644.19;4943646;29;1594;-56
2022/04/26 10:47:08;;;;;;;;;;;;;;;19.53;55.66;100637.84;4935850;29;1424;-56
2022/04/26 10:49:45;;;;;;;;;;;;;;;19.50;55.98;100647.03;4936656;29;1923;-57
2022/04/26 10:52:33;;;;;;;;;;;;;;;19.48;55.86;100641.81;4935733;29;1393;-57
2022/04/26 10:55:14;;;;;;;;;;;;;;;19.51;55.39;100653.25;4939216;29;1367;-56
2022/04/26 10:57:42;;;;;;;;;;;;;;;19.53;55.58;100648.56;4935327;29;1500;-56
2022/04/26 11:00:10;;;;;;;;;;;;;;;19.54;55.32;100642.25;4935718;29;1501;-56
2022/04/26 11:02:39;;;;;;;;;;;;;;;19.51;54.85;100642.50;4936513;29;1339;-56
2022/04/26 11:05:10;;;;;;;;;;;;;;;19.44;55.41;100645.75;4936217;29;1534;-56
2022/04/26 11:07:37;;;;;;;;;;;;;;;19.47;55.17;100650.81;4939486;29;1974;-56
2022/04/26 11:10:05;;;;;;;;;;;;;;;19.47;55.93;100648.13;4941515;29;1927;-56
2022/04/26 11:12:33;;;;;;;;;;;;;;;19.48;55.54;100649.84;4942761;29;1470;-56
2022/04/26 11:15:01;;;;;;;;;;;;;;;19.50;55.28;100646.16;4937157;29;1337;-56
2022/04/26 11:17:29;;;;;;;;;;;;;;;19.51;55.97;100637.16;4940668;29;1150;-56
2022/04/26 11:19:56;;;;;;;;;;;;;;;19.50;55.37;100646.16;4938073;29;1585;-56
2022/04/26 11:22:25;;;;;;;;;;;;;;;19.47;55.89;100637.41;4936321;29;1642;-56
2022/04/26 11:28:00;;;;;;;;;;;;;;;19.50;55.41;100636.31;4938257;29;1305;-57
2022/04/26 11:30:29;;;;;;;;;;;;;;;19.47;55.26;100653.50;4939247;29;1927;-56
2022/04/26 11:32:56;;;;;;;;;;;;;;;19.43;56.25;100636.00;4939752;29;1177;-56
2022/04/26 11:35:23;;;;;;;;;;;;;;;19.59;55.73;100645.31;4936166;29;1631;-58
2022/04/26 11:37:55;;;;;;;;;;;;;;;19.57;56.46;100644.63;4939340;29;1448;-58
2022/04/26 11:40:23;;;;;;;;;;;;;;;19.60;55.77;100642.50;4937733;29;1602;-54
2022/04/26 11:42:50;;;;;;;;;;;;;;;19.54;56.59;100636.88;4933285;29;1401;-56
2022/04/26 11:45:17;;;;;;;;;;;;;;;19.58;56.60;100647.16;4937032;29;1424;-58
2022/04/26 11:47:44;;;;;;;;;;;;;;;19.62;56.84;100637.00;4941528;29;1563;-57
2022/04/26 11:50:12;;;;;;;;;;;;;;;19.60;56.86;100641.66;4938311;28;1911;-50
2022/04/26 11:52:38;;;;;;;;;;;;;;;19.60;57.21;100633.63;4938040;29;1356;-57
2022/04/26 11:55:07;;;;;;;;;;;;;;;19.61;57.41;100640.66;4940859;29;1369;-57
2022/04/26 11:57:34;;;;;;;;;;;;;;;19.54;57.75;100637.72;4939285;29;1410;-56
2022/04/26 12:00:01;;;;;;;;;;;;;;;19.49;57.72;100637.28;4942113;29;1645;-56
2022/04/26 12:02:29;;;;;;;;;;;;;;;19.54;58.06;100626.16;4947188;29;1555;-56
2022/04/26 12:04:57;;;;;;;;;;;;;;;19.56;57.83;100624.16;4940072;29;1870;-58
2022/04/26 12:07:23;;;;;;;;;;;;;;;19.72;57.73;100613.72;4943593;29;1392;-57
2022/04/26 12:09:50;;;;;;;;;;;;;;;19.72;57.66;100623.63;4943171;29;1960;-62
2022/04/26 12:12:18;;;;;;;;;;;;;;;19.65;58.12;100625.97;4942363;29;1434;-56
2022/04/26 12:14:48;;;;;;;;;;;;;;;19.53;58.70;100619.06;4941613;29;1358;-56
2022/04/26 12:17:19;;;;;;;;;;;;;;;19.59;58.61;100626.53;4944594;29;1727;-57
2022/04/26 12:19:50;;;;;;;;;;;;;;;19.48;58.39;100623.03;4941121;29;1642;-57
2022/04/26 12:22:17;;;;;;;;;;;;;;;19.45;58.53;100615.25;4946065;29;1635;-57
2022/04/26 12:24:48;;;;;;;;;;;;;;;19.44;58.44;100621.63;4944950;29;1387;-57
2022/04/26 12:27:15;;;;;;;;;;;;;;;19.44;58.34;100612.75;4939110;29;1472;-57
2022/04/26 12:29:44;;;;;;;;;;;;;;;19.42;58.52;100602.16;4940612;29;1902;-57
2022/04/26 12:32:12;;;;;;;;;;;;;;;19.43;58.61;100614.56;4940843;29;1674;-57
2022/04/26 12:34:47;;;;;;;;;;;;;;;19.40;58.51;100614.00;4939927;29;1503;-57
2022/04/26 12:37:17;;;;;;;;;;;;;;;19.40;58.58;100603.28;4938420;29;1519;-57
2022/04/26 12:39:45;;;;;;;;;;;;;;;19.36;58.75;100600.03;4940540;29;1029;-56
2022/04/26 12:42:13;;;;;;;;;;;;;;;19.36;58.82;100594.69;4945212;29;1581;-57
2022/04/26 12:44:50;;;;;;;;;;;;;;;19.34;58.76;100582.38;4938710;29;1424;-57
2022/04/26 12:52:47;;;;;;;;;;;;;;;19.33;59.15;100586.06;4948912;29;1614;-57
2022/04/26 12:55:14;;;;;;;;;;;;;;;19.33;59.00;100605.66;4947248;29;1641;-57
2022/04/26 12:57:48;;;;;;;;;;;;;;;19.35;59.07;100587.59;4940828;29;1590;-57
2022/04/26 13:00:18;;;;;;;;;;;;;;;19.40;59.16;100587.19;4943563;29;1583;-57
2022/04/26 13:02:46;;;;;;;;;;;;;;;19.37;59.08;100582.94;4940397;28;1630;-57
2022/04/26 13:05:12;;;;;;;;;;;;;;;19.37;59.17;100579.44;4930807;29;1507;-57
2022/04/26 13:07:39;;;;;;;;;;;;;;;19.36;59.53;100581.25;4941998;29;1450;-57
2022/04/26 13:10:06;;;;;;;;;;;;;;;19.35;59.36;100571.50;4945151;29;1906;-57
2022/04/26 13:12:33;;;;;;;;;;;;;;;19.34;59.44;100572.53;4950818;29;1586;-56
2022/04/26 13:14:59;;;;;;;;;;;;;;;19.37;59.29;100569.53;4942752;29;1626;-57
2022/04/26 13:17:27;;;;;;;;;;;;;;;19.33;59.45;100572.66;4942235;29;1582;-57
2022/04/26 13:19:54;;;;;;;;;;;;;;;19.32;59.40;100574.50;4938588;29;1686;-57
2022/04/26 13:22:22;;;;;;;;;;;;;;;19.37;59.42;100579.44;4939372;29;1646;-57
2022/04/26 13:24:49;;;;;;;;;;;;;;;19.33;59.67;100575.34;4940228;29;1391;-57
2022/04/26 13:27:16;;;;;;;;;;;;;;;19.34;59.12;100571.66;4938515;29;1559;-57
2022/04/26 13:29:43;;;;;;;;;;;;;;;19.33;59.73;100570.81;4939088;29;1977;-57
2022/04/26 13:32:09;;;;;;;;;;;;;;;19.33;59.68;100561.94;4939331;29;1717;-57
2022/04/26 13:34:37;;;;;;;;;;;;;;;19.26;59.63;100559.81;4939024;29;1717;-57
2022/04/26 13:37:07;;;;;;;;;;;;;;;19.41;59.47;100554.84;4936297;29;1486;-57
2022/04/26 13:39:33;;;;;;;;;;;;;;;19.42;59.89;100558.41;4932904;29;1779;-57
2022/04/26 13:42:00;;;;;;;;;;;;;;;19.43;59.59;100554.72;4934932;29;1521;-58
2022/04/26 13:44:27;;;;;;;;;;;;;;;19.42;59.70;100559.25;4946799;29;1462;-57
2022/04/26 13:46:54;;;;;;;;;;;;;;;19.44;59.54;100557.25;4950945;29;1375;-58
2022/04/26 13:49:20;;;;;;;;;;;;;;;19.42;59.70;100553.88;4936230;29;1784;-55
2022/04/26 13:51:48;;;;;;;;;;;;;;;19.43;59.84;100550.19;4945193;29;2249;-57
2022/04/26 13:54:15;;;;;;;;;;;;;;;19.42;59.69;100553.03;4944018;29;1571;-57
2022/04/26 13:56:43;;;;;;;;;;;;;;;19.41;60.06;100546.81;4940678;29;1919;-57
2022/04/26 13:59:10;;;;;;;;;;;;;;;19.41;60.11;100546.81;4942450;29;1598;-55
2022/04/26 14:01:36;;;;;;;;;;;;;;;19.45;60.38;100547.38;4947060;29;1574;-55
2022/04/26 14:04:04;;;;;;;;;;;;;;;19.39;59.87;100548.78;4945406;29;1080;-55
2022/04/26 14:06:31;;;;;;;;;;;;;;;19.40;60.15;100541.63;4937771;29;1789;-55
2022/04/26 14:08:59;;;;;;;;;;;;;;;19.40;60.15;100542.44;4943103;29;1486;-56
2022/04/26 14:11:25;;;;;;;;;;;;;;;19.41;60.45;100540.59;4945692;29;1903;-56
2022/04/26 14:22:04;;;;;;;;;;;;;;;19.45;60.20;100556.25;4936692;29;1413;-56
2022/04/26 14:24:32;;;;;;;;;;;;;;;19.44;60.51;100559.94;4943188;29;1563;-56
2022/04/26 14:26:59;;;;;;;;;;;;;;;19.41;60.56;100552.16;4943152;29;1922;-56
2022/04/26 14:29:26;;;;;;;;;;;;;;;19.40;60.80;100541.63;4942961;29;1713;-56
2022/04/26 14:31:53;;;;;;;;;;;;;;;19.43;61.26;100539.47;4945272;29;1970;-57
2022/04/26 14:34:19;;;;;;;;;;;;;;;19.47;61.11;100548.06;4937980;29;1349;-56
2022/04/26 14:36:46;;;;;;;;;;;;;;;19.49;60.67;100538.06;4939534;29;1837;-57
2022/04/26 14:39:13;;;;;;;;;;;;;;;19.52;60.37;100537.78;4936461;29;1726;-56
2022/04/26 14:41:41;;;;;;;;;;;;;;;19.61;61.34;100536.03;4942278;29;1583;-57
2022/04/26 14:44:08;;;;;;;;;;;;;;;19.64;62.73;100531.25;4938819;29;1555;-57
2022/04/26 14:46:35;;;;;;;;;;;;;;;19.76;63.52;100539.16;4944348;29;1320;-56
2022/04/26 14:49:02;;;;;;;;;;;;;;;19.74;63.27;100525.03;4938711;29;2019;-56
2022/04/26 14:51:29;;;;;;;;;;;;;;;19.74;62.79;100530.41;4941012;29;1902;-56
2022/04/26 14:53:55;;;;;;;;;;;;;;;19.76;63.26;100544.53;4944658;29;1520;-55
2022/04/26 14:56:22;;;;;;;;;;;;;;;19.74;63.33;100531.25;4940986;29;1378;-55
2022/04/26 14:58:50;;;;;;;;;;;;;;;19.81;63.48;100535.03;4937027;29;1385;-60
2022/04/26 15:01:17;;;;;;;;;;;;;;;19.91;63.14;100528.78;4935865;29;1587;-58
2022/04/26 15:03:44;;;;;;;;;;;;;;;19.85;63.44;100533.72;4936931;29;1308;-54
2022/04/26 15:06:10;;;;;;;;;;;;;;;19.82;63.71;100538.56;4935209;29;1460;-57
2022/04/26 15:11:21;;;;;;;;;;;;;;;19.89;65.76;100541.50;4938591;29;1985;-55
2022/04/26 15:16:39;;;;;;;;;;;;;;;19.95;65.27;100532.88;4936081;29;1470;-59
2022/04/26 15:19:06;;;;;;;;;;;;;;;19.85;64.56;100533.72;4936093;29;976;-53
2022/04/26 15:21:32;;;;;;;;;;;;;;;19.83;66.01;100534.88;4936349;29;1777;-59
2022/04/26 15:23:59;;;;;;;;;;;;;;;19.85;66.23;100527.53;4936858;29;1583;-54
2022/04/26 15:26:26;;;;;;;;;;;;;;;19.90;66.11;100533.31;4937941;29;1575;-57
2022/04/26 15:28:53;;;;;;;;;;;;;;;19.82;65.80;100528.69;4940970;29;1497;-57
2022/04/26 15:31:19;;;;;;;;;;;;;;;19.79;66.34;100539.69;4937216;29;1914;-56
2022/04/26 15:33:48;;;;;;;;;;;;;;;19.68;65.50;100539.84;4939409;29;1063;-55
2022/04/26 15:36:14;;;;;;;;;;;;;;;19.60;65.50;100537.88;4937011;29;1681;-56
2022/04/26 15:38:42;;;;;;;;;;;;;;;19.56;65.50;100533.81;4938829;29;1475;-54
2022/04/26 15:41:08;;;;;;;;;;;;;;;19.52;65.77;100534.22;4936514;29;1438;-57
2022/04/26 15:43:35;;;;;;;;;;;;;;;19.52;65.52;100526.19;4937587;29;1592;-53
2022/04/26 15:46:03;;;;;;;;;;;;;;;19.51;65.65;100529.88;4943019;29;1479;-54
2022/04/26 15:48:30;;;;;;;;;;;;;;;19.47;65.70;100531.97;4937746;29;1222;-57
2022/04/26 15:50:58;;;;;;;;;;;;;;;19.46;65.77;100541.88;4938505;29;1906;-57
2022/04/26 15:53:24;;;;;;;;;;;;;;;19.45;65.55;100524.06;4940108;29;1380;-54
2022/04/26 15:55:51;;;;;;;;;;;;;;;19.42;65.22;100527.06;4940731;29;1712;-57
2022/04/26 15:58:18;;;;;;;;;;;;;;;19.43;65.07;100528.75;4938077;29;1765;-53
2022/04/26 16:00:45;;;;;;;;;;;;;;;19.44;65.05;100524.25;4933842;29;1638;-57
2022/04/26 16:03:11;;;;;;;;;;;;;;;19.45;64.84;100536.66;4943367;29;1378;-57
2022/04/26 16:05:40;;;;;;;;;;;;;;;19.40;64.68;100530.88;4945746;29;1586;-56
2022/04/26 16:08:08;;;;;;;;;;;;;;;19.41;64.83;100546.81;4943451;29;1323;-57
2022/04/26 16:21:33;;;;;;;;;;;;;;;19.39;63.96;100548.78;4936646;29;1656;-54
2022/04/26 16:24:01;;;;;;;;;;;;;;;19.36;63.82;100543.72;4936492;29;1627;-57
2022/04/26 16:26:29;;;;;;;;;;;;;;;19.37;63.60;100556.13;4934284;29;2002;-53
2022/04/26 16:28:55;;;;;;;;;;;;;;;19.34;63.98;100556.44;4941298;29;1383;-57
2022/04/26 16:31:28;;;;;;;;;;;;;;;19.38;64.22;100551.63;4941368;29;2014;-57
2022/04/26 16:33:54;;;;;;;;;;;;;;;19.35;64.12;100558.09;4936152;29;916;-56
2022/04/26 16:36:21;;;;;;;;;;;;;;;19.34;64.32;100553.75;4936526;29;1666;-54
2022/04/26 16:38:48;;;;;;;;;;;;;;;19.36;64.10;100565.19;4937032;29;1570;-57
2022/04/26 16:41:15;;;;;;;;;;;;;;;19.34;63.95;100552.88;4944899;29;1800;-53
2022/04/26 16:43:43;;;;;;;;;;;;;;;19.33;64.29;100565.44;4944763;29;1804;-57
2022/04/26 16:46:11;;;;;;;;;;;;;;;19.31;64.54;100559.38;4943580;29;1630;-57
2022/04/26 16:48:38;;;;;;;;;;;;;;;19.31;64.09;100559.38;4939601;29;1062;-57
2022/04/26 16:51:05;;;;;;;;;;;;;;;19.31;64.26;100567.44;4939632;29;1979;-53
2022/04/26 16:53:31;;;;;;;;;;;;;;;19.31;63.95;100575.47;4946451;29;1567;-53
2022/04/26 16:55:58;;;;;;;;;;;;;;;19.31;64.04;100569.28;4944573;29;1721;-56
2022/04/26 16:58:27;;;;;;;;;;;;;;;19.35;63.92;100573.34;4940310;29;1375;-54
2022/04/26 17:00:53;;;;;;;;;;;;;;;19.49;63.68;100580.97;4940678;29;1401;-55
2022/04/26 17:03:20;;;;;;;;;;;;;;;19.48;63.47;100574.75;4940222;29;1642;-57
2022/04/26 17:05:47;;;;;;;;;;;;;;;19.50;63.49;100581.78;4938217;29;1452;-54
2022/04/26 17:08:15;;;;;;;;;;;;;;;19.49;63.60;100583.63;4944693;29;1533;-56
2022/04/26 17:10:42;;;;;;;;;;;;;;;19.48;63.64;100585.47;4942758;29;1903;-54
2022/04/26 17:13:09;;;;;;;;;;;;;;;19.45;63.43;100590.28;4940405;29;1561;-50
2022/04/26 17:15:37;;;;;;;;;;;;;;;19.51;63.96;100594.22;4941851;29;1453;-57